Login

hornet975
1 activity; - Last training unit 08/09/2013
08/09/2013 Show to everybody Superga 17.26 484 02:05:24 8.26 Km\h StumpJumper
15/07/2012 Show to everybody Torino Vertical Race 2012 30.95 590 02:17:43 13.48 Km\h StumpJumper
07/04/2012 Show to everybody Albenga 23.97 668 02:39:14 9.03 Km\h StumpJumper
13/11/2011 Show to everybody Uscita 16.78 525 02:28:22 6.79 Km\h StumpJumper
01/11/2011 Show to everybody Uscita 19.72 338 01:39:13 11.93 Km\h StumpJumper
30/10/2011 Show to everybody Uscita 22.19 878 03:17:54 6.73 Km\h StumpJumper
23/10/2011 Show to everybody Uscita 19.96 503 01:53:26 10.56 Km\h StumpJumper
22/10/2011 Show to everybody Uscita 18.49 622 02:07:26 8.71 Km\h StumpJumper
16/10/2011 Show to everybody Uscita 30.7 844 02:34:19 11.94 Km\h StumpJumper
09/10/2011 Show to everybody Uscita 21.58 971 03:03:21 7.06 Km\h StumpJumper
02/10/2011 Show to everybody Uscita 17.41 497 01:47:57 9.67 Km\h StumpJumper
01/10/2011 Show to everybody Uscita 30.33 673 02:36:59 11.59 Km\h StumpJumper
29/09/2011 Show to everybody Moncuni notturna 27.67 401 01:56:18 14.28 Km\h StumpJumper
25/09/2011 Show to everybody Uscita 24.79 497 01:51:58 13.29 Km\h StumpJumper
25/09/2011 Show to everybody Uscitine 24.79 497 01:51:58 13.29 Km\h StumpJumper
24/09/2011 Show to everybody Uscita 24.24 780 02:16:27 10.66 Km\h StumpJumper
17/09/2011 Show to everybody Uscita 16.94 503 01:44:09 9.76 Km\h StumpJumper
13/09/2011 Show to everybody Uscita 20.58 423 01:36:56 12.74 Km\h StumpJumper
11/09/2011 Show to everybody Uscita 17.44 500 01:48:24 9.65 Km\h StumpJumper
10/09/2011 Show to everybody Uscita 23.97 490 02:00:37 11.92 Km\h StumpJumper
06/09/2011 Show to everybody Uscita 23.39 52 00:57:35 24.37 Km\h StumpJumper
30/08/2011 Show to everybody Uscita 23.71 484 01:43:15 13.78 Km\h StumpJumper
28/08/2011 Show to everybody Uscita 20.86 315 01:37:16 12.87 Km\h StumpJumper
27/08/2011 Show to everybody Uscita 23.83 527 02:22:31 10.03 Km\h StumpJumper
10/08/2011 Show to everybody Uscita 11.13 209 01:17:21 8.64 Km\h Hardrock
07/08/2011 Show to everybody Uscita 32.07 544 02:14:04 14.35 Km\h Hardrock
03/08/2011 Show to everybody Uscita 25.52 114 01:11:04 21.55 Km\h Hardrock
31/07/2011 Show to everybody 1 35.77 1087 02:47:55 12.78 Km\h Hardrock
30/07/2011 Show to everybody Uscitina 32.88 1005 03:02:38 10.8 Km\h Hardrock
26/07/2011 Show to everybody Uscita 24.16 476 01:39:19 14.59 Km\h Hardrock
24/07/2011 Show to everybody Uscita 29.37 467 01:46:12 16.59 Km\h Hardrock
14/07/2011 Show to everybody Ciclabile San Mauro 26.64 38 01:10:05 22.81 Km\h Hardrock
10/07/2011 Show to everybody 1 26.4 543 02:20:29 11.27 Km\h Hardrock
03/07/2011 Show to everybody Andora 19.08 388 01:49:54 10.42 Km\h Hardrock
01/07/2011 Show to everybody Ciclabile San Mauro 25.83 43 01:18:37 19.71 Km\h Hardrock
26/06/2011 Show to everybody Andora Testico 46.97 548 02:23:14 19.68 Km\h Hardrock
Training units 0
Kilometers 0 Km
Vertical gain 0 mt
Hours of riding 00:00:00
Average speed 0 Km/h
average HR 137
Points 33
Live Tracking »

StumpJumper 137:33:37 1376.59 Km
Hardrock 45:43:48 610.15 Km

 
If you stop following this users you will not be able to compare your trainings with his

Now you follow this users and you can compare your trainings


MTB-Mag.com | 2012-2021 Training Camp v.1.6 rev 05